createdAt,value
2022-10-14T00:01:39.339Z,8.45
2022-10-14T00:04:07.776Z,7.80
2022-10-14T00:06:36.190Z,9.02
2022-10-14T00:09:08.634Z,7.85
2022-10-14T00:11:37.991Z,8.20
2022-10-14T00:14:09.103Z,8.48
2022-10-14T00:16:41.150Z,7.78
2022-10-14T00:19:12.454Z,7.97
2022-10-14T00:21:43.785Z,8.70
2022-10-14T00:24:14.335Z,7.65
2022-10-14T00:26:42.731Z,7.97
2022-10-14T00:29:15.786Z,7.95
2022-10-14T00:31:45.760Z,7.22
2022-10-14T00:34:15.987Z,7.88
2022-10-14T00:36:44.852Z,9.77
2022-10-14T00:39:17.186Z,7.55
2022-10-14T00:41:45.957Z,7.70
2022-10-14T00:44:48.068Z,7.97
2022-10-14T00:47:18.466Z,8.77
2022-10-14T00:49:46.932Z,9.98
2022-10-14T00:52:18.792Z,10.15
2022-10-14T00:54:51.439Z,8.95
2022-10-14T00:57:20.640Z,8.18
2022-10-14T00:59:49.419Z,10.38
2022-10-14T01:02:19.151Z,10.70
2022-10-14T01:04:47.563Z,11.15
2022-10-14T01:07:25.674Z,11.80
2022-10-14T01:10:04.202Z,10.52
2022-10-14T01:12:42.660Z,11.85
2022-10-14T01:15:22.830Z,10.63
2022-10-14T01:18:02.907Z,10.82
2022-10-14T01:20:54.431Z,10.68
2022-10-14T01:23:39.804Z,9.93
2022-10-14T01:26:28.281Z,10.52
2022-10-14T01:29:14.611Z,11.88
2022-10-14T01:31:49.070Z,11.02
2022-10-14T01:36:57.309Z,12.68
2022-10-14T01:39:30.129Z,17.27
2022-10-14T01:42:03.522Z,15.50
2022-10-14T01:44:33.809Z,18.13
2022-10-14T01:47:06.462Z,23.83
2022-10-14T01:49:38.718Z,24.80
2022-10-14T01:52:13.926Z,21.20
2022-10-14T01:54:45.583Z,17.67
2022-10-14T01:57:19.218Z,18.13
2022-10-14T01:59:48.900Z,17.20
2022-10-14T02:02:18.896Z,16.00
2022-10-14T02:04:47.344Z,14.18
2022-10-14T02:07:21.945Z,13.60
2022-10-14T02:09:57.292Z,11.88
2022-10-14T02:12:39.644Z,12.80
2022-10-14T02:15:17.976Z,10.90
2022-10-14T02:17:56.490Z,11.15
2022-10-14T02:20:30.235Z,10.23
2022-10-14T02:23:01.787Z,9.60
2022-10-14T02:25:35.757Z,9.43
2022-10-14T02:28:07.886Z,9.57
2022-10-14T02:30:42.641Z,8.07
2022-10-14T02:33:13.990Z,9.63
2022-10-14T02:35:44.333Z,9.18
2022-10-14T02:38:12.852Z,10.75
2022-10-14T02:40:45.600Z,10.98
2022-10-14T02:43:14.062Z,11.00
2022-10-14T02:45:44.125Z,10.52
2022-10-14T02:48:14.412Z,9.43
2022-10-14T02:50:43.133Z,11.45
2022-10-14T02:53:15.548Z,11.13
2022-10-14T02:55:46.838Z,11.50
2022-10-14T02:58:15.215Z,9.85
2022-10-14T03:00:43.580Z,11.38
2022-10-14T03:03:14.922Z,10.88
2022-10-14T03:05:44.020Z,11.13
2022-10-14T03:08:15.202Z,12.18
2022-10-14T03:10:47.235Z,11.27
2022-10-14T03:13:17.317Z,10.82
2022-10-14T03:15:50.346Z,11.43
2022-10-14T03:18:21.618Z,13.80
2022-10-14T03:20:51.164Z,10.63
2022-10-14T03:23:25.147Z,11.52
2022-10-14T03:25:55.758Z,10.65
2022-10-14T03:28:28.440Z,11.70
2022-10-14T03:31:17.061Z,11.07
2022-10-14T03:33:56.436Z,10.45
2022-10-14T03:36:25.442Z,13.23
2022-10-14T03:38:56.895Z,11.23
2022-10-14T03:41:35.262Z,10.38
2022-10-14T03:44:04.218Z,12.38
2022-10-14T03:46:34.828Z,11.73
2022-10-14T03:49:05.145Z,11.43
2022-10-14T03:51:34.173Z,11.95
2022-10-14T03:54:10.572Z,10.15
2022-10-14T03:56:39.409Z,9.77
2022-10-14T03:59:08.135Z,9.65
2022-10-14T04:01:38.159Z,10.82
2022-10-14T04:04:19.096Z,11.10
2022-10-14T04:06:48.278Z,10.27
2022-10-14T04:09:19.219Z,9.75
2022-10-14T04:11:47.561Z,9.02
2022-10-14T04:14:34.292Z,9.65
2022-10-14T04:17:02.732Z,8.90
2022-10-14T04:19:32.470Z,8.75
2022-10-14T04:22:02.607Z,9.95
2022-10-14T04:24:31.540Z,11.45
2022-10-14T04:27:00.911Z,9.73
2022-10-14T04:29:52.862Z,7.95
2022-10-14T04:32:28.481Z,7.80
2022-10-14T04:34:58.783Z,8.63
2022-10-14T04:37:31.275Z,8.55
2022-10-14T04:40:04.805Z,7.75
2022-10-14T04:42:34.859Z,8.07
2022-10-14T04:45:07.743Z,8.77
2022-10-14T04:47:51.677Z,8.00
2022-10-14T04:50:25.143Z,7.95
2022-10-14T04:53:14.061Z,9.02
2022-10-14T04:56:00.373Z,9.27
2022-10-14T04:58:28.805Z,8.50
2022-10-14T05:00:58.254Z,8.32
2022-10-14T05:03:34.191Z,8.10
2022-10-14T05:06:04.002Z,8.10
2022-10-14T05:08:32.334Z,7.82
2022-10-14T05:11:02.542Z,8.90
2022-10-14T05:13:38.785Z,8.40
2022-10-14T05:16:10.025Z,6.45
2022-10-14T05:18:39.777Z,7.30
2022-10-14T05:21:13.986Z,9.55
2022-10-14T05:23:58.059Z,8.73
2022-10-14T05:26:28.802Z,8.38
2022-10-14T05:28:59.783Z,7.13
2022-10-14T05:31:28.216Z,9.43
2022-10-14T05:34:03.942Z,8.35
2022-10-14T05:36:33.914Z,7.45
2022-10-14T05:39:03.145Z,7.90
2022-10-14T05:41:36.143Z,7.50
2022-10-14T05:44:05.071Z,7.78
2022-10-14T05:46:34.752Z,7.43
2022-10-14T05:49:05.902Z,7.20
2022-10-14T05:51:38.435Z,9.27
2022-10-14T05:54:16.590Z,7.00
2022-10-14T05:56:45.886Z,7.95
2022-10-14T05:59:14.875Z,8.10
2022-10-14T06:01:43.680Z,10.40
2022-10-14T06:04:18.667Z,8.85
2022-10-14T06:06:48.751Z,8.10
2022-10-14T06:09:18.176Z,7.28
2022-10-14T06:11:46.894Z,8.38
2022-10-14T06:14:15.417Z,7.80
2022-10-14T06:16:43.837Z,7.05
2022-10-14T06:19:12.283Z,7.47
2022-10-14T06:21:40.626Z,7.72
2022-10-14T06:24:10.544Z,6.68
2022-10-14T06:26:38.885Z,7.72
2022-10-14T06:29:07.415Z,6.85
2022-10-14T06:31:35.700Z,9.70
2022-10-14T06:34:05.992Z,7.20
2022-10-14T06:36:35.110Z,6.25
2022-10-14T06:39:03.763Z,7.13
2022-10-14T06:41:33.805Z,7.60
2022-10-14T06:44:02.130Z,7.35
2022-10-14T06:46:31.858Z,6.95
2022-10-14T06:49:00.196Z,8.68
2022-10-14T06:51:28.478Z,6.45
2022-10-14T06:53:56.939Z,6.15
2022-10-14T06:56:25.305Z,6.63
2022-10-14T06:58:56.199Z,6.63
2022-10-14T07:01:24.675Z,6.03
2022-10-14T07:03:55.909Z,6.50
2022-10-14T07:06:25.140Z,6.57
2022-10-14T07:08:53.470Z,5.93
2022-10-14T07:11:21.900Z,6.05
2022-10-14T07:13:50.438Z,6.40
2022-10-14T07:16:20.257Z,6.15
2022-10-14T07:18:49.541Z,5.82
2022-10-14T07:21:17.817Z,6.15
2022-10-14T07:23:46.574Z,7.13
2022-10-14T07:26:15.041Z,5.97
2022-10-14T07:28:43.479Z,6.18
2022-10-14T07:31:13.062Z,5.65
2022-10-14T07:33:42.776Z,5.75
2022-10-14T07:36:17.229Z,6.15
2022-10-14T07:38:48.352Z,5.85
2022-10-14T07:41:19.310Z,5.43
2022-10-14T07:43:50.190Z,6.00
2022-10-14T07:46:29.154Z,5.63
2022-10-14T07:49:00.402Z,5.63
2022-10-14T07:51:29.611Z,5.97
2022-10-14T07:54:00.282Z,4.82
2022-10-14T07:56:29.259Z,5.15
2022-10-14T07:58:59.406Z,5.47
2022-10-14T08:01:27.785Z,5.22
2022-10-14T08:03:56.482Z,4.30
2022-10-14T08:06:26.202Z,4.35
2022-10-14T08:08:54.959Z,5.72
2022-10-14T08:11:25.332Z,5.40
2022-10-14T08:13:54.577Z,4.65
2022-10-14T08:16:25.499Z,4.57
2022-10-14T08:18:56.042Z,4.15
2022-10-14T08:21:26.608Z,4.80
2022-10-14T08:23:55.602Z,5.70
2022-10-14T08:26:29.096Z,5.85
2022-10-14T08:28:58.340Z,4.63
2022-10-14T08:31:26.781Z,4.80
2022-10-14T08:33:55.130Z,5.28
2022-10-14T08:36:23.602Z,4.80
2022-10-14T08:38:54.726Z,4.68
2022-10-14T08:41:39.552Z,4.93
2022-10-14T08:44:15.954Z,4.53
2022-10-14T08:46:51.226Z,4.20
2022-10-14T08:49:26.855Z,4.35
2022-10-14T08:52:00.973Z,5.28
2022-10-14T08:54:37.802Z,5.18
2022-10-14T08:57:13.597Z,4.60
2022-10-14T08:59:42.676Z,4.25
2022-10-14T09:02:24.235Z,5.88
2022-10-14T09:04:52.777Z,4.38
2022-10-14T09:07:22.178Z,5.32
2022-10-14T09:09:58.120Z,4.53
2022-10-14T09:12:29.536Z,4.28
2022-10-14T09:15:08.950Z,4.38
2022-10-14T09:17:43.191Z,4.47
2022-10-14T09:20:19.421Z,4.07
2022-10-14T09:22:57.893Z,3.85
2022-10-14T09:25:28.521Z,3.60
2022-10-14T09:27:56.958Z,4.13
2022-10-14T09:30:25.340Z,4.40
2022-10-14T09:32:55.910Z,4.28
2022-10-14T09:35:26.931Z,4.88
2022-10-14T09:37:55.399Z,4.25
2022-10-14T09:40:31.094Z,3.78
2022-10-14T09:43:04.085Z,4.38
2022-10-14T09:45:49.761Z,4.85
2022-10-14T09:48:21.567Z,4.53
2022-10-14T09:50:52.681Z,4.63
2022-10-14T09:53:29.256Z,4.47
2022-10-14T09:56:00.763Z,4.72
2022-10-14T09:58:34.020Z,4.60
2022-10-14T10:01:03.481Z,4.70
2022-10-14T10:03:33.703Z,4.50
2022-10-14T10:06:05.528Z,5.65
2022-10-14T10:08:34.814Z,5.30
2022-10-14T10:11:07.059Z,4.75
2022-10-14T10:13:44.449Z,4.75
2022-10-14T10:16:22.490Z,4.35
2022-10-14T10:18:52.307Z,6.22
2022-10-14T10:21:25.745Z,4.60
2022-10-14T10:23:57.729Z,4.07
2022-10-14T10:26:31.740Z,4.38
2022-10-14T10:29:02.573Z,5.18
2022-10-14T10:32:07.075Z,5.00
2022-10-14T10:34:58.522Z,4.50
2022-10-14T10:37:29.974Z,4.80
2022-10-14T10:40:22.130Z,5.70
2022-10-14T10:43:06.826Z,4.70
2022-10-14T10:45:47.835Z,6.15
2022-10-14T10:48:22.359Z,5.35
2022-10-14T10:53:42.578Z,5.40
2022-10-14T10:56:23.835Z,5.10
2022-10-14T10:59:12.202Z,5.68
2022-10-14T11:01:51.217Z,5.78
2022-10-14T11:04:43.548Z,6.57
2022-10-14T11:07:38.111Z,7.15
2022-10-14T11:10:34.189Z,6.55
2022-10-14T11:13:21.328Z,6.57
2022-10-14T11:15:58.078Z,6.25
2022-10-14T11:18:37.491Z,6.03
2022-10-14T11:21:13.358Z,6.28
2022-10-14T11:23:57.145Z,6.45
2022-10-14T11:26:41.576Z,5.68
2022-10-14T11:29:27.063Z,6.35
2022-10-14T11:32:04.997Z,7.63
2022-10-14T11:34:43.810Z,6.90
2022-10-14T11:37:29.622Z,7.10
2022-10-14T11:40:03.034Z,8.45
2022-10-14T11:42:49.020Z,6.30
2022-10-14T11:45:47.586Z,6.20
2022-10-14T11:48:25.209Z,6.95
2022-10-14T11:50:58.987Z,7.85
2022-10-14T11:53:40.521Z,7.38
2022-10-14T11:56:18.752Z,8.85
2022-10-14T11:58:48.771Z,8.05
2022-10-14T12:01:22.196Z,10.50
2022-10-14T12:04:03.628Z,8.30
2022-10-14T12:06:36.623Z,8.32
2022-10-14T12:09:13.622Z,7.80
2022-10-14T12:11:47.254Z,7.45
2022-10-14T12:14:21.370Z,8.88
2022-10-14T12:16:51.120Z,9.65
2022-10-14T12:19:25.656Z,8.48
2022-10-14T12:24:34.589Z,9.73
2022-10-14T12:27:04.986Z,8.32
2022-10-14T12:29:36.250Z,7.82
2022-10-14T12:32:19.507Z,6.82
2022-10-14T12:34:50.675Z,8.23
2022-10-14T12:37:52.836Z,8.68
2022-10-14T12:40:26.900Z,10.13
2022-10-14T12:43:05.369Z,8.23
2022-10-14T12:45:36.646Z,9.00
2022-10-14T12:48:11.884Z,8.20
2022-10-14T12:50:42.866Z,8.20
2022-10-14T12:53:22.375Z,10.95
2022-10-14T12:55:52.943Z,8.98
2022-10-14T12:58:29.107Z,10.43
2022-10-14T13:01:01.405Z,8.85
2022-10-14T13:03:34.432Z,10.23
2022-10-14T13:06:30.838Z,9.27
2022-10-14T13:09:38.855Z,9.38
2022-10-14T13:12:41.959Z,8.95
2022-10-14T13:15:49.390Z,8.88
2022-10-14T13:18:50.344Z,8.30
2022-10-14T13:21:51.757Z,9.30
2022-10-14T13:24:26.061Z,9.68
2022-10-14T13:27:04.485Z,10.35
2022-10-14T13:29:46.173Z,9.90
2022-10-14T13:32:28.546Z,9.57
2022-10-14T13:35:06.054Z,10.20
2022-10-14T13:37:41.909Z,8.32
2022-10-14T13:40:23.651Z,9.32
2022-10-14T13:42:57.289Z,8.77
2022-10-14T13:45:35.904Z,9.00
2022-10-14T13:48:06.889Z,8.75
2022-10-14T13:50:38.662Z,10.13
2022-10-14T13:53:16.245Z,10.00
2022-10-14T13:55:49.162Z,9.00
2022-10-14T13:58:23.242Z,9.98
2022-10-14T14:01:01.318Z,8.88
2022-10-14T14:03:33.506Z,10.15
2022-10-14T14:06:04.221Z,9.98
2022-10-14T14:08:43.268Z,7.97
2022-10-14T14:11:19.250Z,9.02
2022-10-14T14:14:00.850Z,10.18
2022-10-14T14:16:33.631Z,10.13
2022-10-14T14:19:08.954Z,10.02
2022-10-14T14:21:38.259Z,9.63
2022-10-14T14:24:17.571Z,8.88
2022-10-14T14:26:55.758Z,9.40
2022-10-14T14:29:29.235Z,9.07
2022-10-14T14:32:07.865Z,7.82
2022-10-14T14:34:39.294Z,9.15
2022-10-14T14:37:43.420Z,8.30
2022-10-14T14:40:08.581Z,8.57
2022-10-14T14:42:40.595Z,8.13
2022-10-14T14:45:16.768Z,8.30
2022-10-14T14:47:45.773Z,9.18
2022-10-14T14:50:33.717Z,8.02
2022-10-14T14:53:04.762Z,8.23
2022-10-14T14:55:43.381Z,7.88
2022-10-14T14:58:24.117Z,9.23
2022-10-14T15:00:54.795Z,8.88
2022-10-14T15:03:24.671Z,9.80
2022-10-14T15:05:57.047Z,10.35
2022-10-14T15:08:29.721Z,9.30
2022-10-14T15:11:00.795Z,11.23
2022-10-14T15:13:49.484Z,9.07
2022-10-14T15:16:36.981Z,12.25
2022-10-14T15:19:27.185Z,12.35
2022-10-14T15:22:24.075Z,10.68
2022-10-14T15:25:06.664Z,10.30
2022-10-14T15:27:49.971Z,10.57
2022-10-14T15:30:20.686Z,10.43
2022-10-14T15:32:49.778Z,12.63
2022-10-14T15:35:20.317Z,10.05
2022-10-14T15:37:50.147Z,12.23
2022-10-14T15:40:21.080Z,11.90
2022-10-14T15:42:51.366Z,10.50
2022-10-14T15:45:20.697Z,11.27
2022-10-14T15:47:54.713Z,11.18
2022-10-14T15:50:26.365Z,12.00
2022-10-14T15:52:55.570Z,12.52
2022-10-14T15:55:26.605Z,10.18
2022-10-14T15:57:57.261Z,9.55
2022-10-14T16:00:26.172Z,12.93
2022-10-14T16:02:58.576Z,13.45
2022-10-14T16:05:29.743Z,14.25
2022-10-14T16:07:58.858Z,12.10
2022-10-14T16:10:29.437Z,11.10
2022-10-14T16:13:02.211Z,13.80
2022-10-14T16:15:35.769Z,12.82
2022-10-14T16:18:04.198Z,10.77
2022-10-14T16:20:32.944Z,12.15
2022-10-14T16:23:01.284Z,11.30
2022-10-14T16:25:35.497Z,10.35
2022-10-14T16:28:09.187Z,10.25
2022-10-14T16:30:40.879Z,10.43
2022-10-14T16:33:09.214Z,11.13
2022-10-14T16:35:37.478Z,10.85
2022-10-14T16:38:05.794Z,9.35
2022-10-14T16:40:36.731Z,10.02
2022-10-14T16:43:08.430Z,8.88
2022-10-14T16:45:36.914Z,12.15
2022-10-14T16:48:05.869Z,10.45
2022-10-14T16:50:34.212Z,10.15
2022-10-14T16:53:20.093Z,10.30
2022-10-14T16:55:48.386Z,9.50
2022-10-14T16:58:18.107Z,9.85
2022-10-14T17:00:46.399Z,9.40
2022-10-14T17:03:16.457Z,9.07
2022-10-14T17:05:46.475Z,11.15
2022-10-14T17:08:15.490Z,10.15
2022-10-14T17:10:48.850Z,9.32
2022-10-14T17:13:19.669Z,10.43
2022-10-14T17:15:48.043Z,8.38
2022-10-14T17:18:17.924Z,9.45
2022-10-14T17:20:47.336Z,8.95
2022-10-14T17:23:15.622Z,10.15
2022-10-14T17:25:46.501Z,9.65
2022-10-14T17:28:15.494Z,9.43
2022-10-14T17:30:45.180Z,7.75
2022-10-14T17:33:13.698Z,8.60
2022-10-14T17:35:42.050Z,8.63
2022-10-14T17:38:10.794Z,8.60
2022-10-14T17:40:39.252Z,9.95
2022-10-14T17:43:07.541Z,8.88
2022-10-14T17:45:36.160Z,6.68
2022-10-14T17:48:07.100Z,9.90
2022-10-14T17:50:36.847Z,8.27
2022-10-14T17:53:05.198Z,7.32
2022-10-14T17:55:36.135Z,7.45
2022-10-14T17:58:04.454Z,6.30
2022-10-14T18:00:32.806Z,7.65
2022-10-14T18:03:01.129Z,8.63
2022-10-14T18:05:31.362Z,7.10
2022-10-14T18:07:59.642Z,9.45
2022-10-14T18:10:28.025Z,9.55
2022-10-14T18:12:57.935Z,8.02
2022-10-14T18:15:27.245Z,7.60
2022-10-14T18:17:57.360Z,9.07
2022-10-14T18:20:25.731Z,7.47
2022-10-14T18:22:55.449Z,7.32
2022-10-14T18:25:23.866Z,7.28
2022-10-14T18:27:52.158Z,8.55
2022-10-14T18:30:20.402Z,6.63
2022-10-14T18:32:49.032Z,7.10
2022-10-14T18:35:17.562Z,8.02
2022-10-14T18:37:46.076Z,6.75
2022-10-14T18:40:18.193Z,8.32
2022-10-14T18:42:46.474Z,6.93
2022-10-14T18:45:15.242Z,6.28
2022-10-14T18:47:43.657Z,6.88
2022-10-14T18:50:12.055Z,7.90
2022-10-14T18:52:40.424Z,7.20
2022-10-14T18:55:09.751Z,7.18
2022-10-14T18:57:39.392Z,7.20
2022-10-14T19:00:13.474Z,6.40
2022-10-14T19:02:42.683Z,6.80
2022-10-14T19:05:10.984Z,7.25
2022-10-14T19:07:39.663Z,7.90
2022-10-14T19:10:08.928Z,7.47
2022-10-14T19:12:43.229Z,7.07
2022-10-14T19:15:13.041Z,7.10
2022-10-14T19:17:42.762Z,7.05
2022-10-14T19:20:11.386Z,6.70
2022-10-14T19:22:44.715Z,6.85
2022-10-14T19:25:13.124Z,6.85
2022-10-14T19:27:41.468Z,6.55
2022-10-14T19:30:11.024Z,6.65
2022-10-14T19:32:40.725Z,7.07
2022-10-14T19:35:09.186Z,6.93
2022-10-14T19:37:37.535Z,6.20
2022-10-14T19:40:06.634Z,6.78
2022-10-14T19:42:34.944Z,5.75
2022-10-14T19:45:03.216Z,5.93
2022-10-14T19:47:31.610Z,5.75
2022-10-14T19:50:01.293Z,6.15
2022-10-14T19:52:29.629Z,5.78
2022-10-14T19:54:57.886Z,5.00
2022-10-14T19:57:26.245Z,7.35
2022-10-14T19:59:54.564Z,6.93
2022-10-14T20:02:22.898Z,5.80
2022-10-14T20:04:51.383Z,5.78
2022-10-14T20:07:21.397Z,5.95
2022-10-14T20:09:49.992Z,5.60
2022-10-14T20:12:18.326Z,5.20
2022-10-14T20:14:46.674Z,5.63
2022-10-14T20:17:15.127Z,5.55
2022-10-14T20:19:43.429Z,5.78
2022-10-14T20:22:11.738Z,6.38
2022-10-14T20:24:41.379Z,6.55
2022-10-14T20:27:12.005Z,7.32
2022-10-14T20:29:40.712Z,6.28
2022-10-14T20:32:09.400Z,5.82
2022-10-14T20:34:37.930Z,6.40
2022-10-14T20:37:06.347Z,6.55
2022-10-14T20:39:34.735Z,7.93
2022-10-14T20:42:07.123Z,7.00
2022-10-14T20:44:35.530Z,6.28
2022-10-14T20:47:03.889Z,5.82
2022-10-14T20:49:32.201Z,6.03
2022-10-14T20:52:00.499Z,6.47
2022-10-14T20:54:28.840Z,6.55
2022-10-14T20:56:57.332Z,7.68
2022-10-14T20:59:27.082Z,7.00
2022-10-14T21:01:55.392Z,7.32
2022-10-14T21:04:23.710Z,6.80
2022-10-14T21:06:52.003Z,5.45
2022-10-14T21:09:20.319Z,6.00
2022-10-14T21:11:48.842Z,5.78
2022-10-14T21:14:17.591Z,6.45
2022-10-14T21:16:47.395Z,6.95
2022-10-14T21:19:15.735Z,6.47
2022-10-14T21:21:46.849Z,6.10
2022-10-14T21:24:16.763Z,6.30
2022-10-14T21:26:45.719Z,5.15
2022-10-14T21:29:14.081Z,6.97
2022-10-14T21:31:42.395Z,7.65
2022-10-14T21:34:12.849Z,5.35
2022-10-14T21:36:41.858Z,5.57
2022-10-14T21:39:11.165Z,6.05
2022-10-14T21:41:40.660Z,5.95
2022-10-14T21:44:09.891Z,5.57
2022-10-14T21:46:38.495Z,5.85
2022-10-14T21:49:07.014Z,5.45
2022-10-14T21:51:36.751Z,5.85
2022-10-14T21:54:05.633Z,5.60
2022-10-14T21:56:34.002Z,6.30
2022-10-14T21:59:02.319Z,5.25
2022-10-14T22:01:31.530Z,5.82
2022-10-14T22:04:01.557Z,5.43
2022-10-14T22:06:29.882Z,7.72
2022-10-14T22:09:01.130Z,5.32
2022-10-14T22:11:31.905Z,5.40
2022-10-14T22:14:02.121Z,5.63
2022-10-14T22:16:31.560Z,4.95
2022-10-14T22:19:01.722Z,5.95
2022-10-14T22:21:32.295Z,6.93
2022-10-14T22:24:50.434Z,6.53
2022-10-14T22:27:20.219Z,5.43
2022-10-14T22:29:48.603Z,5.78
2022-10-14T22:32:16.883Z,6.18
2022-10-14T22:34:45.198Z,8.40
2022-10-14T22:37:13.474Z,5.00
2022-10-14T22:39:41.940Z,6.35
2022-10-14T22:42:10.354Z,5.78
2022-10-14T22:44:40.054Z,6.72
2022-10-14T22:47:08.619Z,5.30
2022-10-14T22:49:36.916Z,5.78
2022-10-14T22:52:05.507Z,6.60
2022-10-14T22:54:33.895Z,5.57
2022-10-14T22:57:02.222Z,6.47
2022-10-14T22:59:30.505Z,5.55
2022-10-14T23:02:00.174Z,5.53
2022-10-14T23:04:28.628Z,5.25
2022-10-14T23:07:01.848Z,6.15
2022-10-14T23:09:32.803Z,5.82
2022-10-14T23:12:01.165Z,5.82
2022-10-14T23:14:30.507Z,6.32
2022-10-14T23:17:00.209Z,5.97
2022-10-14T23:19:28.494Z,5.50
2022-10-14T23:21:57.033Z,5.78
2022-10-14T23:24:26.303Z,5.70
2022-10-14T23:26:54.589Z,5.78
2022-10-14T23:29:22.886Z,5.05
2022-10-14T23:31:51.299Z,5.43
2022-10-14T23:34:21.223Z,6.40
2022-10-14T23:36:51.284Z,5.07
2022-10-14T23:39:19.648Z,5.13
2022-10-14T23:41:47.996Z,6.78
2022-10-14T23:44:16.354Z,5.25
2022-10-14T23:46:44.694Z,5.38
2022-10-14T23:49:25.417Z,5.88
2022-10-14T23:51:56.684Z,6.53
2022-10-14T23:54:25.162Z,5.28
2022-10-14T23:56:53.443Z,5.97
2022-10-14T23:59:21.874Z,6.50
